sensor_id;sensor_type;location;lat;lon;timestamp;P1;durP1;ratioP1;P2;durP2;ratioP2
18623;SDS011;9441;51.420;7.036;2024-02-26T00:00:02;3.43;;;2.63;;
18623;SDS011;9441;51.420;7.036;2024-02-26T00:01:05;3.60;;;2.50;;
18623;SDS011;9441;51.420;7.036;2024-02-26T00:02:07;6.20;;;3.13;;
18623;SDS011;9441;51.420;7.036;2024-02-26T00:03:08;4.73;;;2.40;;
18623;SDS011;9441;51.420;7.036;2024-02-26T00:04:11;9.57;;;3.03;;
18623;SDS011;9441;51.420;7.036;2024-02-26T00:05:12;5.30;;;2.70;;
18623;SDS011;9441;51.420;7.036;2024-02-26T00:06:15;7.87;;;3.03;;
18623;SDS011;9441;51.420;7.036;2024-02-26T00:07:18;3.20;;;2.67;;
18623;SDS011;9441;51.420;7.036;2024-02-26T00:08:20;4.90;;;3.00;;
18623;SDS011;9441;51.420;7.036;2024-02-26T00:09:21;8.73;;;3.00;;
18623;SDS011;9441;51.420;7.036;2024-02-26T00:10:23;7.73;;;3.00;;
18623;SDS011;9441;51.420;7.036;2024-02-26T00:11:24;6.63;;;2.83;;
18623;SDS011;9441;51.420;7.036;2024-02-26T00:12:25;6.63;;;2.77;;
18623;SDS011;9441;51.420;7.036;2024-02-26T00:13:27;12.33;;;3.07;;
18623;SDS011;9441;51.420;7.036;2024-02-26T00:14:28;7.70;;;2.73;;
18623;SDS011;9441;51.420;7.036;2024-02-26T00:15:30;4.87;;;2.53;;
18623;SDS011;9441;51.420;7.036;2024-02-26T00:16:31;5.80;;;2.80;;
18623;SDS011;9441;51.420;7.036;2024-02-26T00:17:33;5.40;;;2.63;;
18623;SDS011;9441;51.420;7.036;2024-02-26T00:18:35;5.03;;;2.60;;
18623;SDS011;9441;51.420;7.036;2024-02-26T00:19:37;6.47;;;2.97;;
18623;SDS011;9441;51.420;7.036;2024-02-26T00:20:38;4.87;;;2.60;;
18623;SDS011;9441;51.420;7.036;2024-02-26T00:21:41;7.13;;;3.00;;
18623;SDS011;9441;51.420;7.036;2024-02-26T00:22:42;5.27;;;2.57;;
18623;SDS011;9441;51.420;7.036;2024-02-26T00:23:44;7.53;;;2.80;;
18623;SDS011;9441;51.420;7.036;2024-02-26T00:24:45;5.47;;;2.83;;
18623;SDS011;9441;51.420;7.036;2024-02-26T00:25:48;8.00;;;2.47;;
18623;SDS011;9441;51.420;7.036;2024-02-26T00:26:49;4.70;;;2.70;;
18623;SDS011;9441;51.420;7.036;2024-02-26T00:27:54;6.53;;;2.30;;
18623;SDS011;9441;51.420;7.036;2024-02-26T00:28:55;7.23;;;2.80;;
18623;SDS011;9441;51.420;7.036;2024-02-26T00:29:58;7.50;;;2.60;;
18623;SDS011;9441;51.420;7.036;2024-02-26T00:30:59;6.77;;;2.90;;
18623;SDS011;9441;51.420;7.036;2024-02-26T00:32:00;4.33;;;2.50;;
18623;SDS011;9441;51.420;7.036;2024-02-26T00:33:02;4.37;;;2.30;;
18623;SDS011;9441;51.420;7.036;2024-02-26T00:34:03;5.07;;;2.50;;
18623;SDS011;9441;51.420;7.036;2024-02-26T00:35:04;4.60;;;2.10;;
18623;SDS011;9441;51.420;7.036;2024-02-26T00:36:07;4.73;;;2.30;;
18623;SDS011;9441;51.420;7.036;2024-02-26T00:37:10;5.17;;;2.60;;
18623;SDS011;9441;51.420;7.036;2024-02-26T00:38:11;4.60;;;2.70;;
18623;SDS011;9441;51.420;7.036;2024-02-26T00:39:12;5.23;;;2.50;;
18623;SDS011;9441;51.420;7.036;2024-02-26T00:40:15;4.77;;;2.60;;
18623;SDS011;9441;51.420;7.036;2024-02-26T00:41:16;4.63;;;2.30;;
18623;SDS011;9441;51.420;7.036;2024-02-26T00:42:18;4.07;;;2.40;;
18623;SDS011;9441;51.420;7.036;2024-02-26T00:43:19;4.27;;;2.27;;
18623;SDS011;9441;51.420;7.036;2024-02-26T00:44:21;4.30;;;2.27;;
18623;SDS011;9441;51.420;7.036;2024-02-26T00:45:22;3.83;;;2.00;;
18623;SDS011;9441;51.420;7.036;2024-02-26T00:46:24;5.10;;;2.13;;
18623;SDS011;9441;51.420;7.036;2024-02-26T00:47:25;3.40;;;2.40;;
18623;SDS011;9441;51.420;7.036;2024-02-26T00:48:28;4.13;;;2.20;;
18623;SDS011;9441;51.420;7.036;2024-02-26T00:49:29;4.47;;;2.30;;
18623;SDS011;9441;51.420;7.036;2024-02-26T00:50:31;4.97;;;2.30;;
18623;SDS011;9441;51.420;7.036;2024-02-26T00:51:32;4.50;;;2.20;;
18623;SDS011;9441;51.420;7.036;2024-02-26T00:52:34;7.80;;;2.50;;
18623;SDS011;9441;51.420;7.036;2024-02-26T00:53:36;7.20;;;2.33;;
18623;SDS011;9441;51.420;7.036;2024-02-26T00:54:37;4.73;;;2.30;;
18623;SDS011;9441;51.420;7.036;2024-02-26T00:55:39;3.70;;;2.40;;
18623;SDS011;9441;51.420;7.036;2024-02-26T00:56:40;5.23;;;2.50;;
18623;SDS011;9441;51.420;7.036;2024-02-26T00:57:42;5.33;;;2.40;;
18623;SDS011;9441;51.420;7.036;2024-02-26T00:58:43;3.43;;;2.33;;
18623;SDS011;9441;51.420;7.036;2024-02-26T00:59:45;5.73;;;2.50;;
18623;SDS011;9441;51.420;7.036;2024-02-26T01:00:46;2.97;;;2.30;;
18623;SDS011;9441;51.420;7.036;2024-02-26T01:01:48;5.40;;;2.67;;
18623;SDS011;9441;51.420;7.036;2024-02-26T01:02:50;4.47;;;2.70;;
18623;SDS011;9441;51.420;7.036;2024-02-26T01:03:52;5.87;;;2.40;;
18623;SDS011;9441;51.420;7.036;2024-02-26T01:04:53;4.67;;;2.30;;
18623;SDS011;9441;51.420;7.036;2024-02-26T01:05:54;3.87;;;2.27;;
18623;SDS011;9441;51.420;7.036;2024-02-26T01:06:56;5.90;;;2.67;;
18623;SDS011;9441;51.420;7.036;2024-02-26T01:07:59;5.40;;;2.40;;
18623;SDS011;9441;51.420;7.036;2024-02-26T01:09:01;3.17;;;2.30;;
18623;SDS011;9441;51.420;7.036;2024-02-26T01:10:02;4.03;;;2.40;;
18623;SDS011;9441;51.420;7.036;2024-02-26T01:11:04;4.50;;;2.30;;
18623;SDS011;9441;51.420;7.036;2024-02-26T01:12:05;2.83;;;2.30;;
18623;SDS011;9441;51.420;7.036;2024-02-26T01:13:07;5.60;;;2.50;;
18623;SDS011;9441;51.420;7.036;2024-02-26T01:14:08;4.00;;;2.33;;
18623;SDS011;9441;51.420;7.036;2024-02-26T01:15:10;5.80;;;2.57;;
18623;SDS011;9441;51.420;7.036;2024-02-26T01:16:11;3.43;;;2.20;;
18623;SDS011;9441;51.420;7.036;2024-02-26T01:17:13;3.80;;;2.03;;
18623;SDS011;9441;51.420;7.036;2024-02-26T01:18:14;4.37;;;2.20;;
18623;SDS011;9441;51.420;7.036;2024-02-26T01:19:15;5.33;;;2.30;;
18623;SDS011;9441;51.420;7.036;2024-02-26T01:20:17;4.17;;;2.30;;
18623;SDS011;9441;51.420;7.036;2024-02-26T01:21:19;3.27;;;2.20;;
18623;SDS011;9441;51.420;7.036;2024-02-26T01:22:21;4.17;;;2.63;;
18623;SDS011;9441;51.420;7.036;2024-02-26T01:23:23;2.97;;;2.17;;
18623;SDS011;9441;51.420;7.036;2024-02-26T01:24:25;3.70;;;2.30;;
18623;SDS011;9441;51.420;7.036;2024-02-26T01:25:27;3.27;;;2.03;;
18623;SDS011;9441;51.420;7.036;2024-02-26T01:26:29;3.77;;;2.13;;
18623;SDS011;9441;51.420;7.036;2024-02-26T01:27:31;4.63;;;2.40;;
18623;SDS011;9441;51.420;7.036;2024-02-26T01:28:33;3.07;;;2.10;;
18623;SDS011;9441;51.420;7.036;2024-02-26T01:29:34;3.83;;;2.47;;
18623;SDS011;9441;51.420;7.036;2024-02-26T01:30:36;3.67;;;2.30;;
18623;SDS011;9441;51.420;7.036;2024-02-26T01:31:37;6.23;;;2.17;;
18623;SDS011;9441;51.420;7.036;2024-02-26T01:32:39;7.00;;;2.47;;
18623;SDS011;9441;51.420;7.036;2024-02-26T01:33:40;3.60;;;2.40;;
18623;SDS011;9441;51.420;7.036;2024-02-26T01:34:42;2.47;;;2.00;;
18623;SDS011;9441;51.420;7.036;2024-02-26T01:35:43;3.00;;;1.87;;
18623;SDS011;9441;51.420;7.036;2024-02-26T01:36:46;2.97;;;1.90;;
18623;SDS011;9441;51.420;7.036;2024-02-26T01:37:48;3.00;;;2.10;;
18623;SDS011;9441;51.420;7.036;2024-02-26T01:38:51;4.97;;;2.00;;
18623;SDS011;9441;51.420;7.036;2024-02-26T01:39:52;4.30;;;2.00;;
18623;SDS011;9441;51.420;7.036;2024-02-26T01:40:53;2.13;;;1.90;;
18623;SDS011;9441;51.420;7.036;2024-02-26T01:41:55;4.90;;;2.10;;
18623;SDS011;9441;51.420;7.036;2024-02-26T01:42:56;6.57;;;2.00;;
18623;SDS011;9441;51.420;7.036;2024-02-26T01:43:58;3.53;;;2.00;;
18623;SDS011;9441;51.420;7.036;2024-02-26T01:44:59;2.13;;;1.93;;
18623;SDS011;9441;51.420;7.036;2024-02-26T01:46:01;4.60;;;1.87;;
18623;SDS011;9441;51.420;7.036;2024-02-26T01:47:04;4.17;;;2.00;;
18623;SDS011;9441;51.420;7.036;2024-02-26T01:48:08;4.50;;;1.80;;
18623;SDS011;9441;51.420;7.036;2024-02-26T01:49:11;3.63;;;1.90;;
18623;SDS011;9441;51.420;7.036;2024-02-26T01:50:14;3.13;;;2.00;;
18623;SDS011;9441;51.420;7.036;2024-02-26T01:51:15;4.10;;;2.10;;
18623;SDS011;9441;51.420;7.036;2024-02-26T01:52:18;2.60;;;1.93;;
18623;SDS011;9441;51.420;7.036;2024-02-26T01:53:21;2.50;;;1.70;;
18623;SDS011;9441;51.420;7.036;2024-02-26T01:54:24;4.00;;;1.87;;
18623;SDS011;9441;51.420;7.036;2024-02-26T01:55:26;2.63;;;1.63;;
18623;SDS011;9441;51.420;7.036;2024-02-26T01:56:28;3.33;;;1.93;;
18623;SDS011;9441;51.420;7.036;2024-02-26T01:57:31;4.20;;;2.30;;
18623;SDS011;9441;51.420;7.036;2024-02-26T01:58:34;4.63;;;2.10;;
18623;SDS011;9441;51.420;7.036;2024-02-26T01:59:36;5.53;;;2.20;;
18623;SDS011;9441;51.420;7.036;2024-02-26T02:00:39;3.77;;;2.20;;
18623;SDS011;9441;51.420;7.036;2024-02-26T02:01:40;2.43;;;1.83;;
18623;SDS011;9441;51.420;7.036;2024-02-26T02:02:46;3.93;;;1.90;;
18623;SDS011;9441;51.420;7.036;2024-02-26T02:03:48;3.30;;;2.03;;
18623;SDS011;9441;51.420;7.036;2024-02-26T02:04:51;3.60;;;1.90;;
18623;SDS011;9441;51.420;7.036;2024-02-26T02:05:52;4.80;;;1.80;;
18623;SDS011;9441;51.420;7.036;2024-02-26T02:06:54;4.27;;;1.90;;
18623;SDS011;9441;51.420;7.036;2024-02-26T02:07:57;6.33;;;1.93;;
18623;SDS011;9441;51.420;7.036;2024-02-26T02:09:00;2.33;;;1.77;;
18623;SDS011;9441;51.420;7.036;2024-02-26T02:10:08;3.70;;;1.80;;
18623;SDS011;9441;51.420;7.036;2024-02-26T02:11:10;5.43;;;1.87;;
18623;SDS011;9441;51.420;7.036;2024-02-26T02:12:12;3.00;;;2.07;;
18623;SDS011;9441;51.420;7.036;2024-02-26T02:13:14;5.87;;;2.00;;
18623;SDS011;9441;51.420;7.036;2024-02-26T02:14:15;2.70;;;1.80;;
18623;SDS011;9441;51.420;7.036;2024-02-26T02:15:17;5.27;;;2.10;;
18623;SDS011;9441;51.420;7.036;2024-02-26T02:16:18;6.83;;;1.90;;
18623;SDS011;9441;51.420;7.036;2024-02-26T02:17:19;4.97;;;1.90;;
18623;SDS011;9441;51.420;7.036;2024-02-26T02:18:21;6.53;;;2.00;;
18623;SDS011;9441;51.420;7.036;2024-02-26T02:19:22;2.23;;;1.90;;
18623;SDS011;9441;51.420;7.036;2024-02-26T02:20:26;3.27;;;2.20;;
18623;SDS011;9441;51.420;7.036;2024-02-26T02:21:33;2.70;;;1.97;;
18623;SDS011;9441;51.420;7.036;2024-02-26T02:22:35;2.77;;;1.80;;
18623;SDS011;9441;51.420;7.036;2024-02-26T02:23:36;8.87;;;2.33;;
18623;SDS011;9441;51.420;7.036;2024-02-26T02:24:38;4.37;;;2.00;;
18623;SDS011;9441;51.420;7.036;2024-02-26T02:25:39;6.03;;;2.50;;
18623;SDS011;9441;51.420;7.036;2024-02-26T02:26:41;5.87;;;1.87;;
18623;SDS011;9441;51.420;7.036;2024-02-26T02:27:42;8.70;;;1.97;;
18623;SDS011;9441;51.420;7.036;2024-02-26T02:28:44;4.00;;;2.10;;
18623;SDS011;9441;51.420;7.036;2024-02-26T02:29:47;6.70;;;1.90;;
18623;SDS011;9441;51.420;7.036;2024-02-26T02:30:50;2.63;;;2.10;;
18623;SDS011;9441;51.420;7.036;2024-02-26T02:31:51;5.60;;;2.10;;
18623;SDS011;9441;51.420;7.036;2024-02-26T02:32:53;5.80;;;2.30;;
18623;SDS011;9441;51.420;7.036;2024-02-26T02:33:55;2.47;;;1.90;;
18623;SDS011;9441;51.420;7.036;2024-02-26T02:34:57;4.97;;;2.13;;
18623;SDS011;9441;51.420;7.036;2024-02-26T02:36:00;6.73;;;2.60;;
18623;SDS011;9441;51.420;7.036;2024-02-26T02:37:02;5.83;;;2.27;;
18623;SDS011;9441;51.420;7.036;2024-02-26T02:38:03;3.30;;;2.13;;
18623;SDS011;9441;51.420;7.036;2024-02-26T02:39:06;3.50;;;2.40;;
18623;SDS011;9441;51.420;7.036;2024-02-26T02:40:08;4.03;;;2.20;;
18623;SDS011;9441;51.420;7.036;2024-02-26T02:41:10;4.80;;;2.13;;
18623;SDS011;9441;51.420;7.036;2024-02-26T02:42:12;3.63;;;2.20;;
18623;SDS011;9441;51.420;7.036;2024-02-26T02:43:13;3.40;;;2.30;;
18623;SDS011;9441;51.420;7.036;2024-02-26T02:44:15;2.40;;;2.10;;
18623;SDS011;9441;51.420;7.036;2024-02-26T02:45:16;4.57;;;2.33;;
18623;SDS011;9441;51.420;7.036;2024-02-26T02:46:18;3.23;;;2.20;;
18623;SDS011;9441;51.420;7.036;2024-02-26T02:47:19;3.67;;;2.10;;
18623;SDS011;9441;51.420;7.036;2024-02-26T02:48:21;7.33;;;2.60;;
18623;SDS011;9441;51.420;7.036;2024-02-26T02:49:22;3.43;;;2.23;;
18623;SDS011;9441;51.420;7.036;2024-02-26T02:50:25;2.37;;;1.80;;
18623;SDS011;9441;51.420;7.036;2024-02-26T02:51:27;2.53;;;2.00;;
18623;SDS011;9441;51.420;7.036;2024-02-26T02:52:29;4.13;;;2.13;;
18623;SDS011;9441;51.420;7.036;2024-02-26T02:53:30;3.27;;;2.33;;
18623;SDS011;9441;51.420;7.036;2024-02-26T02:54:32;3.17;;;2.23;;
18623;SDS011;9441;51.420;7.036;2024-02-26T02:55:33;3.87;;;2.40;;
18623;SDS011;9441;51.420;7.036;2024-02-26T02:56:35;3.83;;;2.47;;
18623;SDS011;9441;51.420;7.036;2024-02-26T02:57:36;3.83;;;2.60;;
18623;SDS011;9441;51.420;7.036;2024-02-26T02:58:42;4.63;;;2.20;;
18623;SDS011;9441;51.420;7.036;2024-02-26T02:59:43;3.87;;;2.30;;
18623;SDS011;9441;51.420;7.036;2024-02-26T03:00:45;2.53;;;2.27;;
18623;SDS011;9441;51.420;7.036;2024-02-26T03:01:46;3.47;;;2.20;;
18623;SDS011;9441;51.420;7.036;2024-02-26T03:02:48;2.57;;;2.07;;
18623;SDS011;9441;51.420;7.036;2024-02-26T03:03:49;3.90;;;2.30;;
18623;SDS011;9441;51.420;7.036;2024-02-26T03:04:51;5.37;;;2.50;;
18623;SDS011;9441;51.420;7.036;2024-02-26T03:05:52;3.70;;;2.20;;
18623;SDS011;9441;51.420;7.036;2024-02-26T03:06:56;6.03;;;2.50;;
18623;SDS011;9441;51.420;7.036;2024-02-26T03:07:58;3.17;;;2.20;;
18623;SDS011;9441;51.420;7.036;2024-02-26T03:09:00;4.03;;;2.50;;
18623;SDS011;9441;51.420;7.036;2024-02-26T03:10:01;4.57;;;2.27;;
18623;SDS011;9441;51.420;7.036;2024-02-26T03:11:03;2.77;;;2.20;;
18623;SDS011;9441;51.420;7.036;2024-02-26T03:12:04;3.90;;;2.33;;
18623;SDS011;9441;51.420;7.036;2024-02-26T03:13:06;3.57;;;2.50;;
18623;SDS011;9441;51.420;7.036;2024-02-26T03:14:10;5.10;;;2.70;;
18623;SDS011;9441;51.420;7.036;2024-02-26T03:15:12;4.27;;;2.30;;
18623;SDS011;9441;51.420;7.036;2024-02-26T03:16:14;4.37;;;2.30;;
18623;SDS011;9441;51.420;7.036;2024-02-26T03:17:16;2.50;;;2.30;;
18623;SDS011;9441;51.420;7.036;2024-02-26T03:18:17;3.50;;;2.37;;
18623;SDS011;9441;51.420;7.036;2024-02-26T03:19:19;4.40;;;2.60;;
18623;SDS011;9441;51.420;7.036;2024-02-26T03:20:20;5.63;;;2.43;;
18623;SDS011;9441;51.420;7.036;2024-02-26T03:21:22;3.13;;;2.47;;
18623;SDS011;9441;51.420;7.036;2024-02-26T03:22:26;6.80;;;2.57;;
18623;SDS011;9441;51.420;7.036;2024-02-26T03:23:28;9.00;;;2.60;;
18623;SDS011;9441;51.420;7.036;2024-02-26T03:24:31;4.07;;;2.37;;
18623;SDS011;9441;51.420;7.036;2024-02-26T03:25:32;2.97;;;2.67;;
18623;SDS011;9441;51.420;7.036;2024-02-26T03:26:34;7.87;;;2.63;;
18623;SDS011;9441;51.420;7.036;2024-02-26T03:27:35;3.43;;;2.53;;
18623;SDS011;9441;51.420;7.036;2024-02-26T03:28:37;4.57;;;2.77;;
18623;SDS011;9441;51.420;7.036;2024-02-26T03:29:38;4.33;;;2.47;;
18623;SDS011;9441;51.420;7.036;2024-02-26T03:30:40;6.93;;;2.80;;
18623;SDS011;9441;51.420;7.036;2024-02-26T03:31:41;5.13;;;2.70;;
18623;SDS011;9441;51.420;7.036;2024-02-26T03:32:43;3.53;;;3.00;;
18623;SDS011;9441;51.420;7.036;2024-02-26T03:33:44;3.73;;;2.70;;
18623;SDS011;9441;51.420;7.036;2024-02-26T03:34:46;4.77;;;2.63;;
18623;SDS011;9441;51.420;7.036;2024-02-26T03:35:47;4.67;;;2.90;;
18623;SDS011;9441;51.420;7.036;2024-02-26T03:36:48;3.67;;;2.80;;
18623;SDS011;9441;51.420;7.036;2024-02-26T03:37:51;5.00;;;2.60;;
18623;SDS011;9441;51.420;7.036;2024-02-26T03:38:52;3.97;;;2.50;;
18623;SDS011;9441;51.420;7.036;2024-02-26T03:39:54;6.50;;;3.00;;
18623;SDS011;9441;51.420;7.036;2024-02-26T03:40:57;3.40;;;2.63;;
18623;SDS011;9441;51.420;7.036;2024-02-26T03:41:58;5.30;;;2.90;;
18623;SDS011;9441;51.420;7.036;2024-02-26T03:43:00;3.77;;;2.80;;
18623;SDS011;9441;51.420;7.036;2024-02-26T03:44:03;7.43;;;3.20;;
18623;SDS011;9441;51.420;7.036;2024-02-26T03:45:06;5.60;;;3.20;;
18623;SDS011;9441;51.420;7.036;2024-02-26T03:46:07;3.00;;;2.70;;
18623;SDS011;9441;51.420;7.036;2024-02-26T03:47:09;3.87;;;2.70;;
18623;SDS011;9441;51.420;7.036;2024-02-26T03:48:10;4.97;;;3.07;;
18623;SDS011;9441;51.420;7.036;2024-02-26T03:49:12;6.47;;;2.77;;
18623;SDS011;9441;51.420;7.036;2024-02-26T03:50:13;7.30;;;2.97;;
18623;SDS011;9441;51.420;7.036;2024-02-26T03:51:16;4.90;;;2.60;;
18623;SDS011;9441;51.420;7.036;2024-02-26T03:52:17;4.70;;;2.80;;
18623;SDS011;9441;51.420;7.036;2024-02-26T03:53:21;3.83;;;2.70;;
18623;SDS011;9441;51.420;7.036;2024-02-26T03:54:21;4.90;;;3.00;;
18623;SDS011;9441;51.420;7.036;2024-02-26T03:55:23;4.37;;;2.90;;
18623;SDS011;9441;51.420;7.036;2024-02-26T03:56:25;4.23;;;2.40;;
18623;SDS011;9441;51.420;7.036;2024-02-26T03:57:27;4.50;;;2.77;;
18623;SDS011;9441;51.420;7.036;2024-02-26T03:58:28;6.00;;;2.93;;
18623;SDS011;9441;51.420;7.036;2024-02-26T03:59:29;3.33;;;2.80;;
18623;SDS011;9441;51.420;7.036;2024-02-26T04:00:31;4.80;;;2.80;;
18623;SDS011;9441;51.420;7.036;2024-02-26T04:01:32;4.37;;;3.17;;
18623;SDS011;9441;51.420;7.036;2024-02-26T04:02:34;6.07;;;2.97;;
18623;SDS011;9441;51.420;7.036;2024-02-26T04:03:35;3.93;;;2.80;;
18623;SDS011;9441;51.420;7.036;2024-02-26T04:04:38;4.30;;;2.87;;
18623;SDS011;9441;51.420;7.036;2024-02-26T04:05:39;6.83;;;2.87;;
18623;SDS011;9441;51.420;7.036;2024-02-26T04:06:43;3.27;;;2.53;;
18623;SDS011;9441;51.420;7.036;2024-02-26T04:07:45;4.60;;;2.80;;
18623;SDS011;9441;51.420;7.036;2024-02-26T04:08:48;4.30;;;2.87;;
18623;SDS011;9441;51.420;7.036;2024-02-26T04:09:49;5.23;;;3.00;;
18623;SDS011;9441;51.420;7.036;2024-02-26T04:10:51;4.20;;;2.87;;
18623;SDS011;9441;51.420;7.036;2024-02-26T04:11:52;4.80;;;3.00;;
18623;SDS011;9441;51.420;7.036;2024-02-26T04:12:54;5.63;;;3.07;;
18623;SDS011;9441;51.420;7.036;2024-02-26T04:13:55;4.07;;;3.27;;
18623;SDS011;9441;51.420;7.036;2024-02-26T04:14:57;3.20;;;2.90;;
18623;SDS011;9441;51.420;7.036;2024-02-26T04:15:59;4.40;;;3.30;;
18623;SDS011;9441;51.420;7.036;2024-02-26T04:17:01;4.70;;;2.90;;
18623;SDS011;9441;51.420;7.036;2024-02-26T04:18:03;5.20;;;3.10;;
18623;SDS011;9441;51.420;7.036;2024-02-26T04:19:05;4.43;;;3.30;;
18623;SDS011;9441;51.420;7.036;2024-02-26T04:20:07;5.00;;;2.80;;
18623;SDS011;9441;51.420;7.036;2024-02-26T04:21:14;4.37;;;3.30;;
18623;SDS011;9441;51.420;7.036;2024-02-26T04:22:15;4.50;;;3.00;;
18623;SDS011;9441;51.420;7.036;2024-02-26T04:23:17;5.13;;;3.37;;
18623;SDS011;9441;51.420;7.036;2024-02-26T04:24:19;4.97;;;3.37;;
18623;SDS011;9441;51.420;7.036;2024-02-26T04:25:21;3.97;;;2.80;;
18623;SDS011;9441;51.420;7.036;2024-02-26T04:26:23;3.47;;;3.10;;
18623;SDS011;9441;51.420;7.036;2024-02-26T04:27:25;5.10;;;3.27;;
18623;SDS011;9441;51.420;7.036;2024-02-26T04:28:26;4.63;;;2.87;;
18623;SDS011;9441;51.420;7.036;2024-02-26T04:29:29;6.43;;;3.23;;
18623;SDS011;9441;51.420;7.036;2024-02-26T04:30:30;6.93;;;2.93;;
18623;SDS011;9441;51.420;7.036;2024-02-26T04:31:31;4.30;;;3.10;;
18623;SDS011;9441;51.420;7.036;2024-02-26T04:32:33;5.03;;;3.27;;
18623;SDS011;9441;51.420;7.036;2024-02-26T04:33:34;6.43;;;3.30;;
18623;SDS011;9441;51.420;7.036;2024-02-26T04:34:36;7.27;;;3.30;;
18623;SDS011;9441;51.420;7.036;2024-02-26T04:35:37;3.47;;;2.97;;
18623;SDS011;9441;51.420;7.036;2024-02-26T04:36:40;3.33;;;2.87;;
18623;SDS011;9441;51.420;7.036;2024-02-26T04:37:42;4.50;;;3.47;;
18623;SDS011;9441;51.420;7.036;2024-02-26T04:38:43;4.23;;;3.10;;
18623;SDS011;9441;51.420;7.036;2024-02-26T04:39:47;5.80;;;3.27;;
18623;SDS011;9441;51.420;7.036;2024-02-26T04:40:48;6.07;;;3.50;;
18623;SDS011;9441;51.420;7.036;2024-02-26T04:41:50;5.83;;;3.30;;
18623;SDS011;9441;51.420;7.036;2024-02-26T04:42:51;5.00;;;3.43;;
18623;SDS011;9441;51.420;7.036;2024-02-26T04:43:53;4.27;;;3.20;;
18623;SDS011;9441;51.420;7.036;2024-02-26T04:44:54;4.70;;;3.67;;
18623;SDS011;9441;51.420;7.036;2024-02-26T04:45:55;7.90;;;3.60;;
18623;SDS011;9441;51.420;7.036;2024-02-26T04:46:58;7.37;;;3.33;;
18623;SDS011;9441;51.420;7.036;2024-02-26T04:47:59;4.77;;;3.33;;
18623;SDS011;9441;51.420;7.036;2024-02-26T04:49:01;8.63;;;3.40;;
18623;SDS011;9441;51.420;7.036;2024-02-26T04:50:02;5.03;;;3.60;;
18623;SDS011;9441;51.420;7.036;2024-02-26T04:51:04;7.33;;;3.93;;
18623;SDS011;9441;51.420;7.036;2024-02-26T04:52:06;5.77;;;3.60;;
18623;SDS011;9441;51.420;7.036;2024-02-26T04:53:07;5.37;;;3.83;;
18623;SDS011;9441;51.420;7.036;2024-02-26T04:54:09;4.63;;;3.30;;
18623;SDS011;9441;51.420;7.036;2024-02-26T04:55:11;4.70;;;3.20;;
18623;SDS011;9441;51.420;7.036;2024-02-26T04:56:14;3.87;;;3.20;;
18623;SDS011;9441;51.420;7.036;2024-02-26T04:57:14;4.83;;;3.03;;
18623;SDS011;9441;51.420;7.036;2024-02-26T04:58:18;4.33;;;3.30;;
18623;SDS011;9441;51.420;7.036;2024-02-26T04:59:20;5.23;;;3.33;;
18623;SDS011;9441;51.420;7.036;2024-02-26T05:00:21;4.97;;;3.30;;
18623;SDS011;9441;51.420;7.036;2024-02-26T05:01:24;5.10;;;3.60;;
18623;SDS011;9441;51.420;7.036;2024-02-26T05:02:25;4.00;;;3.30;;
18623;SDS011;9441;51.420;7.036;2024-02-26T05:03:27;4.80;;;3.10;;
18623;SDS011;9441;51.420;7.036;2024-02-26T05:04:28;8.07;;;3.33;;
18623;SDS011;9441;51.420;7.036;2024-02-26T05:05:30;4.43;;;3.50;;
18623;SDS011;9441;51.420;7.036;2024-02-26T05:06:31;6.90;;;3.53;;
18623;SDS011;9441;51.420;7.036;2024-02-26T05:07:33;3.80;;;3.20;;
18623;SDS011;9441;51.420;7.036;2024-02-26T05:08:39;6.03;;;3.30;;
18623;SDS011;9441;51.420;7.036;2024-02-26T05:09:41;5.63;;;3.57;;
18623;SDS011;9441;51.420;7.036;2024-02-26T05:10:46;7.93;;;3.80;;
18623;SDS011;9441;51.420;7.036;2024-02-26T05:11:48;5.33;;;3.80;;
18623;SDS011;9441;51.420;7.036;2024-02-26T05:12:49;3.73;;;3.20;;
18623;SDS011;9441;51.420;7.036;2024-02-26T05:13:51;4.30;;;3.43;;
18623;SDS011;9441;51.420;7.036;2024-02-26T05:14:52;3.70;;;3.30;;
18623;SDS011;9441;51.420;7.036;2024-02-26T05:15:53;4.47;;;3.37;;
18623;SDS011;9441;51.420;7.036;2024-02-26T05:16:55;6.03;;;3.17;;
18623;SDS011;9441;51.420;7.036;2024-02-26T05:17:56;6.33;;;3.43;;
18623;SDS011;9441;51.420;7.036;2024-02-26T05:18:58;3.90;;;3.37;;
18623;SDS011;9441;51.420;7.036;2024-02-26T05:19:59;4.67;;;3.17;;
18623;SDS011;9441;51.420;7.036;2024-02-26T05:21:01;4.97;;;3.40;;
18623;SDS011;9441;51.420;7.036;2024-02-26T05:22:03;7.67;;;3.47;;
18623;SDS011;9441;51.420;7.036;2024-02-26T05:23:04;6.03;;;3.40;;
18623;SDS011;9441;51.420;7.036;2024-02-26T05:24:06;4.33;;;3.10;;
18623;SDS011;9441;51.420;7.036;2024-02-26T05:25:08;6.70;;;3.67;;
18623;SDS011;9441;51.420;7.036;2024-02-26T05:26:11;6.43;;;3.60;;
18623;SDS011;9441;51.420;7.036;2024-02-26T05:27:12;6.50;;;3.40;;
18623;SDS011;9441;51.420;7.036;2024-02-26T05:28:14;6.90;;;3.70;;
18623;SDS011;9441;51.420;7.036;2024-02-26T05:29:15;6.50;;;3.70;;
18623;SDS011;9441;51.420;7.036;2024-02-26T05:30:17;5.40;;;3.60;;
18623;SDS011;9441;51.420;7.036;2024-02-26T05:31:19;4.73;;;3.50;;
18623;SDS011;9441;51.420;7.036;2024-02-26T05:32:21;3.83;;;3.47;;
18623;SDS011;9441;51.420;7.036;2024-02-26T05:33:22;4.97;;;3.73;;
18623;SDS011;9441;51.420;7.036;2024-02-26T05:34:24;5.30;;;3.37;;
18623;SDS011;9441;51.420;7.036;2024-02-26T05:35:25;3.73;;;3.37;;
18623;SDS011;9441;51.420;7.036;2024-02-26T05:36:27;6.30;;;3.43;;
18623;SDS011;9441;51.420;7.036;2024-02-26T05:37:33;5.53;;;3.53;;
18623;SDS011;9441;51.420;7.036;2024-02-26T05:38:35;5.80;;;3.30;;
18623;SDS011;9441;51.420;7.036;2024-02-26T05:39:36;4.43;;;3.47;;
18623;SDS011;9441;51.420;7.036;2024-02-26T05:40:37;5.20;;;3.43;;
18623;SDS011;9441;51.420;7.036;2024-02-26T05:41:40;6.20;;;3.60;;
18623;SDS011;9441;51.420;7.036;2024-02-26T05:42:43;3.57;;;3.23;;
18623;SDS011;9441;51.420;7.036;2024-02-26T05:43:45;5.20;;;3.40;;
18623;SDS011;9441;51.420;7.036;2024-02-26T05:44:46;3.67;;;3.17;;
18623;SDS011;9441;51.420;7.036;2024-02-26T05:45:48;4.70;;;3.47;;
18623;SDS011;9441;51.420;7.036;2024-02-26T05:46:49;8.20;;;3.73;;
18623;SDS011;9441;51.420;7.036;2024-02-26T05:47:50;6.53;;;3.87;;
18623;SDS011;9441;51.420;7.036;2024-02-26T05:48:53;7.67;;;3.50;;
18623;SDS011;9441;51.420;7.036;2024-02-26T05:49:54;5.30;;;3.90;;
18623;SDS011;9441;51.420;7.036;2024-02-26T05:50:59;6.03;;;3.60;;
18623;SDS011;9441;51.420;7.036;2024-02-26T05:52:00;5.97;;;3.73;;
18623;SDS011;9441;51.420;7.036;2024-02-26T05:53:02;6.03;;;3.63;;
18623;SDS011;9441;51.420;7.036;2024-02-26T05:54:03;4.77;;;3.70;;
18623;SDS011;9441;51.420;7.036;2024-02-26T05:55:05;5.67;;;3.70;;
18623;SDS011;9441;51.420;7.036;2024-02-26T05:56:07;4.80;;;3.47;;
18623;SDS011;9441;51.420;7.036;2024-02-26T05:57:11;5.57;;;3.70;;
18623;SDS011;9441;51.420;7.036;2024-02-26T05:58:12;5.43;;;3.50;;
18623;SDS011;9441;51.420;7.036;2024-02-26T05:59:14;6.13;;;3.60;;
18623;SDS011;9441;51.420;7.036;2024-02-26T06:00:16;7.10;;;3.80;;
18623;SDS011;9441;51.420;7.036;2024-02-26T06:01:19;6.83;;;3.70;;
18623;SDS011;9441;51.420;7.036;2024-02-26T06:02:20;5.17;;;3.77;;
18623;SDS011;9441;51.420;7.036;2024-02-26T06:03:22;4.53;;;3.60;;
18623;SDS011;9441;51.420;7.036;2024-02-26T06:04:23;9.20;;;4.03;;
18623;SDS011;9441;51.420;7.036;2024-02-26T06:05:25;7.17;;;4.43;;
18623;SDS011;9441;51.420;7.036;2024-02-26T06:06:26;5.70;;;4.10;;
18623;SDS011;9441;51.420;7.036;2024-02-26T06:07:28;4.87;;;3.87;;
18623;SDS011;9441;51.420;7.036;2024-02-26T06:08:29;6.07;;;4.10;;
18623;SDS011;9441;51.420;7.036;2024-02-26T06:09:31;5.33;;;3.83;;
18623;SDS011;9441;51.420;7.036;2024-02-26T06:10:32;7.47;;;3.93;;
18623;SDS011;9441;51.420;7.036;2024-02-26T06:11:35;6.77;;;3.97;;
18623;SDS011;9441;51.420;7.036;2024-02-26T06:12:37;7.50;;;3.80;;
18623;SDS011;9441;51.420;7.036;2024-02-26T06:13:40;5.70;;;4.00;;
18623;SDS011;9441;51.420;7.036;2024-02-26T06:14:41;6.20;;;4.50;;
18623;SDS011;9441;51.420;7.036;2024-02-26T06:15:43;10.17;;;4.47;;
18623;SDS011;9441;51.420;7.036;2024-02-26T06:16:44;4.63;;;3.80;;
18623;SDS011;9441;51.420;7.036;2024-02-26T06:17:47;6.43;;;3.80;;